createdAt,value
2023-01-17T00:00:58.337Z,98789.16
2023-01-17T00:03:29.216Z,98792.63
2023-01-17T00:06:16.221Z,98796.09
2023-01-17T00:09:03.364Z,98782.09
2023-01-17T00:11:32.993Z,98781.16
2023-01-17T00:14:02.826Z,98780.25
2023-01-17T00:16:33.912Z,98776.75
2023-01-17T00:19:20.984Z,98777.63
2023-01-17T00:22:22.787Z,98779.38
2023-01-17T00:25:10.387Z,98775.00
2023-01-17T00:27:38.647Z,98774.09
2023-01-17T00:30:08.049Z,98781.09
2023-01-17T00:32:37.825Z,98768.00
2023-01-17T00:35:06.803Z,98761.88
2023-01-17T00:37:34.910Z,98763.66
2023-01-17T00:40:03.661Z,98756.69
2023-01-17T00:42:31.813Z,98754.06
2023-01-17T00:45:18.970Z,98744.44
2023-01-17T00:48:07.009Z,98746.19
2023-01-17T00:50:55.570Z,98736.59
2023-01-17T00:53:42.518Z,98724.38
2023-01-17T00:56:29.693Z,98729.59
2023-01-17T00:59:16.561Z,98726.13
2023-01-17T01:02:03.799Z,98721.75
2023-01-17T01:04:52.281Z,98714.78
2023-01-17T01:07:39.964Z,98713.03
2023-01-17T01:10:27.411Z,98704.31
2023-01-17T01:13:14.599Z,98686.84
2023-01-17T01:16:01.795Z,98683.38
2023-01-17T01:18:49.050Z,98678.13
2023-01-17T01:21:37.184Z,98672.03
2023-01-17T01:24:24.390Z,98667.66
2023-01-17T01:27:11.543Z,98655.44
2023-01-17T01:29:58.895Z,98658.91
2023-01-17T01:32:45.861Z,98655.41
2023-01-17T01:35:17.183Z,98650.16
2023-01-17T01:37:48.331Z,98645.81
2023-01-17T01:40:19.770Z,98648.44
2023-01-17T01:42:53.184Z,98648.44
2023-01-17T01:45:24.603Z,98637.97
2023-01-17T01:47:56.885Z,98635.34
2023-01-17T01:50:27.045Z,98624.06
2023-01-17T01:53:01.417Z,98613.59
2023-01-17T01:55:33.598Z,98608.31
2023-01-17T01:58:05.774Z,98591.72
2023-01-17T02:00:37.494Z,98596.94
2023-01-17T02:03:10.579Z,98577.75
2023-01-17T02:05:42.825Z,98569.03
2023-01-17T02:08:15.095Z,98559.44
2023-01-17T02:10:45.543Z,98552.44
2023-01-17T02:13:17.076Z,98550.69
2023-01-17T02:15:51.439Z,98541.09
2023-01-17T02:18:28.807Z,98534.09
2023-01-17T02:21:14.331Z,98540.19
2023-01-17T02:23:58.596Z,98535.81
2023-01-17T02:26:43.322Z,98520.13
2023-01-17T02:29:27.779Z,98523.63
2023-01-17T02:32:03.535Z,98520.13
2023-01-17T02:34:37.819Z,98521.00
2023-01-17T02:37:13.477Z,98524.44
2023-01-17T02:39:48.933Z,98528.78
2023-01-17T02:42:21.185Z,98521.81
2023-01-17T02:44:50.948Z,98519.25
2023-01-17T02:47:24.886Z,98518.31
2023-01-17T02:49:56.863Z,98509.59
2023-01-17T02:52:43.866Z,98494.75
2023-01-17T02:55:20.126Z,98493.91
2023-01-17T02:58:02.623Z,98496.47
2023-01-17T03:00:39.411Z,98483.41
2023-01-17T03:03:15.709Z,98418.50
2023-01-17T03:05:47.624Z,98482.53
2023-01-17T03:08:18.429Z,98470.34
2023-01-17T03:10:48.093Z,98468.59
2023-01-17T03:13:18.094Z,98470.31
2023-01-17T03:15:48.091Z,98457.22
2023-01-17T03:18:20.658Z,98464.19
2023-01-17T03:20:50.317Z,98457.25
2023-01-17T03:23:20.325Z,98448.50
2023-01-17T03:25:49.956Z,98441.53
2023-01-17T03:28:19.889Z,98433.69
2023-01-17T03:30:49.733Z,98431.97
2023-01-17T03:33:21.207Z,98424.97
2023-01-17T03:35:50.814Z,98423.22
2023-01-17T03:38:20.879Z,98422.34
2023-01-17T03:40:50.440Z,98421.50
2023-01-17T03:43:20.595Z,98413.63
2023-01-17T03:45:50.852Z,98416.25
2023-01-17T03:48:22.505Z,98400.56
2023-01-17T03:50:52.676Z,98399.66
2023-01-17T03:53:22.636Z,98401.41
2023-01-17T03:55:52.223Z,98394.41
2023-01-17T03:58:22.090Z,98392.69
2023-01-17T04:00:51.715Z,98391.81
2023-01-17T04:03:23.176Z,98389.19
2023-01-17T04:05:52.779Z,98374.38
2023-01-17T04:08:23.028Z,98373.47
2023-01-17T04:10:53.823Z,98371.72
2023-01-17T04:13:26.173Z,98363.00
2023-01-17T04:15:55.940Z,98356.88
2023-01-17T04:18:27.678Z,98349.91
2023-01-17T04:20:57.456Z,98353.38
2023-01-17T04:23:27.471Z,98340.31
2023-01-17T04:25:57.340Z,98338.59
2023-01-17T04:28:27.312Z,98334.22
2023-01-17T04:30:59.560Z,98332.41
2023-01-17T04:33:30.974Z,98329.81
2023-01-17T04:36:00.725Z,98338.50
2023-01-17T04:38:30.670Z,98335.91
2023-01-17T04:41:00.169Z,98327.19
2023-01-17T04:43:30.054Z,98320.19
2023-01-17T04:45:59.963Z,98330.66
2023-01-17T04:48:31.770Z,98335.00
2023-01-17T04:51:02.001Z,98324.53
2023-01-17T04:53:32.365Z,98314.03
2023-01-17T04:56:02.383Z,98316.63
2023-01-17T04:58:33.858Z,98319.25
2023-01-17T05:01:04.439Z,98314.88
2023-01-17T05:03:36.262Z,98320.97
2023-01-17T05:06:06.177Z,98320.97
2023-01-17T05:08:36.081Z,98315.75
2023-01-17T05:11:06.815Z,98314.88
2023-01-17T05:13:36.934Z,98314.88
2023-01-17T05:16:06.755Z,98308.75
2023-01-17T05:18:38.205Z,98304.38
2023-01-17T05:21:08.875Z,98293.91
2023-01-17T05:23:38.839Z,98288.66
2023-01-17T05:26:08.509Z,98286.06
2023-01-17T05:28:38.543Z,98289.53
2023-01-17T05:31:08.204Z,98278.16
2023-01-17T05:33:39.932Z,98285.16
2023-01-17T05:36:09.999Z,98290.38
2023-01-17T05:38:40.139Z,98287.72
2023-01-17T05:41:09.848Z,98284.25
2023-01-17T05:43:40.014Z,98282.50
2023-01-17T05:46:09.634Z,98279.88
2023-01-17T05:48:44.254Z,98285.97
2023-01-17T05:51:13.797Z,98285.09
2023-01-17T05:53:43.650Z,98285.94
2023-01-17T05:56:13.288Z,98282.41
2023-01-17T05:58:43.227Z,98283.31
2023-01-17T06:01:12.952Z,98282.44
2023-01-17T06:03:44.469Z,98280.69
2023-01-17T06:06:14.194Z,98278.97
2023-01-17T06:08:44.150Z,98285.97
2023-01-17T06:11:13.665Z,98294.72
2023-01-17T06:13:43.578Z,98287.75
2023-01-17T06:16:13.278Z,98286.00
2023-01-17T06:18:44.780Z,98279.88
2023-01-17T06:21:14.474Z,98279.84
2023-01-17T06:23:44.499Z,98281.59
2023-01-17T06:26:14.147Z,98279.88
2023-01-17T06:28:44.065Z,98280.72
2023-01-17T06:31:13.818Z,98276.34
2023-01-17T06:33:45.117Z,98278.97
2023-01-17T06:36:14.711Z,98285.94
2023-01-17T06:38:44.581Z,98279.84
2023-01-17T06:41:14.218Z,98290.31
2023-01-17T06:43:45.192Z,98289.41
2023-01-17T06:46:14.852Z,98286.78
2023-01-17T06:48:46.441Z,98278.94
2023-01-17T06:51:16.494Z,98284.09
2023-01-17T06:53:46.424Z,98283.19
2023-01-17T06:56:17.130Z,98279.69
2023-01-17T06:58:50.386Z,98280.53
2023-01-17T07:01:20.534Z,98272.69
2023-01-17T07:03:52.755Z,98277.88
2023-01-17T07:06:24.139Z,98303.13
2023-01-17T07:08:54.197Z,98299.59
2023-01-17T07:11:24.690Z,98297.81
2023-01-17T07:13:54.676Z,98296.06
2023-01-17T07:16:24.563Z,98291.72
2023-01-17T07:18:58.343Z,98294.28
2023-01-17T07:21:28.103Z,98288.19
2023-01-17T07:23:58.217Z,98269.84
2023-01-17T07:26:27.768Z,98275.97
2023-01-17T07:28:58.451Z,98281.16
2023-01-17T07:31:29.522Z,98282.88
2023-01-17T07:34:01.140Z,98280.25
2023-01-17T07:36:30.806Z,98285.50
2023-01-17T07:39:00.702Z,98287.16
2023-01-17T07:41:32.871Z,98281.94
2023-01-17T07:44:07.765Z,98273.16
2023-01-17T07:46:37.824Z,98266.13
2023-01-17T07:49:09.244Z,98266.13
2023-01-17T07:51:40.251Z,98258.28
2023-01-17T07:54:10.246Z,98253.84
2023-01-17T07:56:40.350Z,98259.94
2023-01-17T07:59:10.556Z,98258.09
2023-01-17T08:01:40.566Z,98251.97
2023-01-17T08:04:12.252Z,98253.63
2023-01-17T08:06:44.567Z,98257.94
2023-01-17T08:09:14.559Z,98267.50
2023-01-17T08:11:44.261Z,98262.22
2023-01-17T08:14:14.302Z,98263.94
2023-01-17T08:16:44.005Z,98253.47
2023-01-17T08:19:17.108Z,98258.66
2023-01-17T08:21:46.807Z,98263.00
2023-01-17T08:24:16.674Z,98272.56
2023-01-17T08:26:46.339Z,98270.78
2023-01-17T08:29:16.306Z,98277.72
2023-01-17T08:31:46.096Z,98280.34
2023-01-17T08:34:17.739Z,98276.88
2023-01-17T08:36:48.237Z,98279.41
2023-01-17T08:39:21.274Z,98279.34
2023-01-17T08:41:51.017Z,98273.22
2023-01-17T08:44:21.329Z,98273.16
2023-01-17T08:46:50.951Z,98264.41
2023-01-17T08:49:22.591Z,98269.59
2023-01-17T08:51:53.003Z,98277.38
2023-01-17T08:54:23.316Z,98274.66
2023-01-17T08:56:53.162Z,98277.28
2023-01-17T08:59:23.054Z,98276.34
2023-01-17T09:01:58.604Z,98278.03
2023-01-17T09:04:30.579Z,98276.13
2023-01-17T09:07:00.301Z,98281.28
2023-01-17T09:09:30.233Z,98279.56
2023-01-17T09:12:00.146Z,98282.16
2023-01-17T09:14:30.271Z,98287.34
2023-01-17T09:17:00.299Z,98284.72
2023-01-17T09:19:32.113Z,98289.94
2023-01-17T09:22:02.100Z,98294.28
2023-01-17T09:24:33.056Z,98297.72
2023-01-17T09:27:04.353Z,98187.19
2023-01-17T09:29:34.502Z,98292.38
2023-01-17T09:32:04.278Z,98296.66
2023-01-17T09:34:36.191Z,98285.25
2023-01-17T09:37:05.919Z,98289.50
2023-01-17T09:39:36.050Z,98292.97
2023-01-17T09:47:41.535Z,98296.31
2023-01-17T11:00:59.075Z,98315.53
2023-01-17T11:03:29.558Z,98305.88
2023-01-17T11:06:19.158Z,98310.22
2023-01-17T11:08:54.320Z,98311.06
2023-01-17T11:11:26.391Z,98302.28
2023-01-17T11:13:57.072Z,98299.66
2023-01-17T11:16:31.586Z,98300.47
2023-01-17T11:19:10.305Z,98303.94
2023-01-17T11:21:41.530Z,98307.28
2023-01-17T11:24:13.175Z,98291.16
2023-01-17T11:26:49.695Z,98267.06
2023-01-17T11:29:30.334Z,98281.63
2023-01-17T11:32:19.912Z,98280.94
2023-01-17T11:35:06.510Z,98280.25
2023-01-17T11:37:36.770Z,98287.34
2023-01-17T11:40:10.991Z,98283.00
2023-01-17T11:42:41.831Z,98291.03
2023-01-17T11:45:26.050Z,98280.53
2023-01-17T11:48:14.505Z,98273.53
2023-01-17T11:50:46.302Z,98278.75
2023-01-17T11:53:23.056Z,98280.47
2023-01-17T11:56:04.153Z,98282.16
2023-01-17T11:58:35.327Z,98272.59
2023-01-17T12:01:30.464Z,98277.97
2023-01-17T12:04:09.989Z,98285.84
2023-01-17T12:06:57.287Z,98280.59
2023-01-17T12:09:32.696Z,98283.25
2023-01-17T12:12:26.880Z,98283.31
2023-01-17T12:15:04.214Z,98292.09
2023-01-17T12:17:42.692Z,98285.94
2023-01-17T12:20:25.500Z,98289.47
2023-01-17T12:23:05.080Z,98291.22
2023-01-17T12:26:01.576Z,98290.34
2023-01-17T12:28:45.191Z,98289.47
2023-01-17T12:31:21.096Z,98293.81
2023-01-17T12:33:54.052Z,98292.91
2023-01-17T12:36:33.649Z,98297.22
2023-01-17T12:39:05.271Z,98295.59
2023-01-17T12:41:37.516Z,98292.00
2023-01-17T12:44:11.842Z,98306.84
2023-01-17T12:46:44.345Z,98306.81
2023-01-17T12:49:21.443Z,98311.94
2023-01-17T12:51:54.813Z,98307.50
2023-01-17T12:54:29.350Z,98307.38
2023-01-17T12:57:00.913Z,98316.97
2023-01-17T12:59:33.854Z,98320.34
2023-01-17T13:02:08.919Z,98321.22
2023-01-17T13:04:57.289Z,98325.50
2023-01-17T13:07:34.583Z,98319.41
2023-01-17T13:10:09.824Z,98274.81
2023-01-17T13:12:40.596Z,98330.97
2023-01-17T13:15:16.220Z,98332.78
2023-01-17T13:17:49.599Z,98335.44
2023-01-17T13:20:22.984Z,98339.72
2023-01-17T13:22:55.696Z,98350.13
2023-01-17T13:25:33.461Z,98356.16
2023-01-17T13:28:17.029Z,98357.94
2023-01-17T13:31:12.984Z,98371.06
2023-01-17T13:34:02.032Z,98384.28
2023-01-17T13:36:43.775Z,98387.81
2023-01-17T13:39:31.514Z,98386.13
2023-01-17T13:42:10.539Z,98382.66
2023-01-17T13:44:40.732Z,98382.66
2023-01-17T13:47:25.933Z,98387.09
2023-01-17T13:49:56.888Z,98396.78
2023-01-17T13:52:33.717Z,98395.03
2023-01-17T13:55:07.443Z,98397.66
2023-01-17T13:57:42.557Z,98397.66
2023-01-17T14:00:32.386Z,98407.31
2023-01-17T14:03:03.829Z,98406.41
2023-01-17T14:05:49.811Z,98406.50
2023-01-17T14:08:23.171Z,98409.19
2023-01-17T14:10:56.332Z,98412.66
2023-01-17T14:13:32.687Z,98417.81
2023-01-17T14:16:03.152Z,98421.31
2023-01-17T14:18:35.352Z,98424.84
2023-01-17T14:21:07.767Z,98423.94
2023-01-17T14:24:04.224Z,98422.22
2023-01-17T14:26:38.850Z,98432.00
2023-01-17T14:29:27.360Z,98435.69
2023-01-17T14:32:01.826Z,98434.06
2023-01-17T14:34:32.253Z,98440.31
2023-01-17T14:37:06.224Z,98442.19
2023-01-17T14:39:44.893Z,98448.53
2023-01-17T14:42:18.080Z,98452.88
2023-01-17T14:44:54.582Z,98461.72
2023-01-17T14:47:25.044Z,98458.25
2023-01-17T14:50:11.982Z,98467.03
2023-01-17T14:52:46.450Z,98462.53
2023-01-17T14:55:19.031Z,98457.25
2023-01-17T14:57:58.734Z,98466.06
2023-01-17T15:00:30.533Z,98474.88
2023-01-17T15:03:03.126Z,98475.78
2023-01-17T15:05:36.025Z,98484.69
2023-01-17T15:08:06.263Z,98478.59
2023-01-17T15:10:48.643Z,98494.56
2023-01-17T15:13:29.882Z,98486.00
2023-01-17T15:16:26.748Z,98492.22
2023-01-17T15:19:00.945Z,98504.69
2023-01-17T15:21:46.906Z,98513.53
2023-01-17T15:24:20.808Z,98513.53
2023-01-17T15:26:50.988Z,98527.47
2023-01-17T15:29:38.532Z,98522.09
2023-01-17T15:32:20.505Z,98525.59
2023-01-17T15:34:51.009Z,98526.47
2023-01-17T15:37:26.094Z,98532.59
2023-01-17T15:40:03.299Z,98529.13
2023-01-17T15:42:35.661Z,98534.31
2023-01-17T15:45:20.119Z,98537.00
2023-01-17T15:47:50.437Z,98534.50
2023-01-17T15:50:30.770Z,98542.34
2023-01-17T15:53:01.989Z,98546.78
2023-01-17T15:55:33.259Z,98542.41
2023-01-17T15:58:04.033Z,98545.91
2023-01-17T16:00:42.132Z,98548.63
2023-01-17T16:03:22.477Z,98546.13
2023-01-17T16:05:53.554Z,98553.19
2023-01-17T16:08:44.266Z,98562.84
2023-01-17T16:11:15.946Z,98555.91
2023-01-17T16:13:47.686Z,98559.38
2023-01-17T16:16:20.899Z,98562.94
2023-01-17T16:18:52.546Z,98566.53
2023-01-17T16:21:23.795Z,98566.56
2023-01-17T16:23:54.106Z,98575.31
2023-01-17T16:26:23.730Z,98567.56
2023-01-17T16:28:53.872Z,98571.06
2023-01-17T16:31:24.990Z,98581.66
2023-01-17T16:33:55.290Z,98586.19
2023-01-17T16:36:25.135Z,98593.31
2023-01-17T16:38:55.232Z,98597.81
2023-01-17T16:41:24.757Z,98599.69
2023-01-17T16:43:58.749Z,98593.75
2023-01-17T16:46:30.650Z,98607.00
2023-01-17T16:49:01.322Z,98608.84
2023-01-17T16:51:30.996Z,98598.38
2023-01-17T16:54:02.995Z,98606.28
2023-01-17T16:56:32.685Z,98605.41
2023-01-17T16:59:02.697Z,98607.94
2023-01-17T17:01:34.026Z,98618.31
2023-01-17T17:04:04.299Z,98618.19
2023-01-17T17:06:34.677Z,98623.25
2023-01-17T17:09:04.773Z,98629.19
2023-01-17T17:11:34.628Z,98626.50
2023-01-17T17:14:05.091Z,98627.06
2023-01-17T17:16:36.197Z,98633.97
2023-01-17T17:19:07.464Z,98637.28
2023-01-17T17:21:37.740Z,98638.94
2023-01-17T17:24:08.504Z,98644.97
2023-01-17T17:26:39.547Z,98644.09
2023-01-17T17:29:11.225Z,98669.38
2023-01-17T17:31:42.980Z,98668.38
2023-01-17T17:34:14.606Z,98682.28
2023-01-17T17:36:44.419Z,98679.69
2023-01-17T17:39:15.978Z,98685.72
2023-01-17T17:41:53.839Z,98699.69
2023-01-17T17:44:30.457Z,98702.25
2023-01-17T17:47:04.365Z,98707.56
2023-01-17T17:49:34.963Z,98709.47
2023-01-17T17:52:06.268Z,98704.31
2023-01-17T17:54:37.992Z,98709.63
2023-01-17T17:57:08.298Z,98726.34
2023-01-17T17:59:38.527Z,98715.00
2023-01-17T18:02:13.723Z,98718.53
2023-01-17T18:04:45.109Z,98729.88
2023-01-17T18:07:15.425Z,98733.47
2023-01-17T18:09:49.423Z,98733.50
2023-01-17T18:12:20.666Z,98723.13
2023-01-17T18:14:51.255Z,98719.78
2023-01-17T18:17:24.257Z,98712.03
2023-01-17T18:19:55.041Z,98715.66
2023-01-17T18:22:25.532Z,98723.69
2023-01-17T18:24:56.979Z,98722.06
2023-01-17T18:27:27.366Z,98720.47
2023-01-17T18:29:58.776Z,98726.69
2023-01-17T18:32:30.464Z,98725.00
2023-01-17T18:35:03.212Z,98728.53
2023-01-17T18:37:36.586Z,98737.34
2023-01-17T18:40:08.771Z,98730.47
2023-01-17T18:42:39.764Z,98737.50
2023-01-17T18:45:10.887Z,98739.28
2023-01-17T18:47:43.397Z,98743.72
2023-01-17T18:50:13.942Z,98748.16
2023-01-17T18:52:44.475Z,98746.44
2023-01-17T18:55:15.080Z,98749.91
2023-01-17T18:57:45.891Z,98748.06
2023-01-17T19:00:20.433Z,98758.53
2023-01-17T19:02:52.032Z,98762.91
2023-01-17T19:05:24.905Z,98757.75
2023-01-17T19:07:54.805Z,98763.97
2023-01-17T19:10:26.155Z,98780.59
2023-01-17T19:12:59.041Z,98781.47
2023-01-17T19:15:29.214Z,98788.56
2023-01-17T19:18:00.654Z,98792.13
2023-01-17T19:20:31.481Z,98797.38
2023-01-17T19:23:03.186Z,98814.75
2023-01-17T19:25:40.383Z,98817.28
2023-01-17T19:28:10.559Z,98820.75
2023-01-17T19:30:41.087Z,98817.31
2023-01-17T19:33:12.183Z,98823.47
2023-01-17T19:35:42.315Z,98827.78
2023-01-17T19:38:12.029Z,98835.66
2023-01-17T19:40:42.107Z,98836.41
2023-01-17T19:43:12.015Z,98833.78
2023-01-17T19:45:42.373Z,98838.09
2023-01-17T19:48:14.674Z,98845.94
2023-01-17T19:50:45.502Z,98842.41
2023-01-17T19:53:15.115Z,98857.19
2023-01-17T19:55:45.495Z,98856.34
2023-01-17T19:58:15.077Z,98852.91
2023-01-17T20:00:46.664Z,98852.94
2023-01-17T20:03:18.236Z,98865.16
2023-01-17T20:05:57.304Z,98870.50
2023-01-17T20:08:33.126Z,98881.84
2023-01-17T20:11:06.246Z,98883.63
2023-01-17T20:13:36.096Z,98885.34
2023-01-17T20:16:07.153Z,98899.28
2023-01-17T20:18:38.721Z,98896.66
2023-01-17T20:21:10.294Z,98894.91
2023-01-17T20:23:42.636Z,98895.78
2023-01-17T20:29:10.766Z,98907.13
2023-01-17T20:31:42.300Z,98918.47
2023-01-17T20:34:14.354Z,98909.72
2023-01-17T20:36:44.427Z,98919.28
2023-01-17T20:39:15.589Z,98928.03
2023-01-17T20:41:46.524Z,98932.44
2023-01-17T20:44:17.112Z,98942.88
2023-01-17T20:46:48.466Z,98945.44
2023-01-17T20:49:20.779Z,98951.59
2023-01-17T20:51:51.020Z,98962.94
2023-01-17T20:54:23.767Z,98960.31
2023-01-17T20:56:57.937Z,98962.94
2023-01-17T20:59:32.794Z,98963.00
2023-01-17T21:02:04.107Z,98972.53
2023-01-17T21:04:35.384Z,98975.19
2023-01-17T21:07:05.794Z,98971.75
2023-01-17T21:09:36.694Z,98983.09
2023-01-17T21:12:07.615Z,98986.63
2023-01-17T21:14:43.006Z,98993.59
2023-01-17T21:17:16.734Z,98984.00
2023-01-17T21:19:47.845Z,98982.28
2023-01-17T21:22:18.174Z,98980.56
2023-01-17T21:24:47.917Z,98983.19
2023-01-17T21:27:18.784Z,98991.88
2023-01-17T21:29:49.383Z,98991.00
2023-01-17T21:32:22.592Z,98989.22
2023-01-17T21:34:54.304Z,98984.91
2023-01-17T21:37:25.714Z,98988.41
2023-01-17T21:39:57.383Z,98991.06
2023-01-17T21:42:31.867Z,98986.72
2023-01-17T21:45:03.384Z,98995.44
2023-01-17T21:47:33.918Z,98988.47
2023-01-17T21:50:07.091Z,98987.59
2023-01-17T21:52:39.105Z,98991.97
2023-01-17T21:55:28.766Z,98997.19
2023-01-17T21:58:17.392Z,99008.50
2023-01-17T22:00:47.232Z,99002.44
2023-01-17T22:03:18.750Z,99005.06
2023-01-17T22:05:51.801Z,99005.94
2023-01-17T22:08:23.709Z,99009.38
2023-01-17T22:10:56.420Z,99006.75
2023-01-17T22:13:33.269Z,98975.47
2023-01-17T22:16:04.984Z,99006.78
2023-01-17T22:18:37.524Z,99012.91
2023-01-17T22:21:10.236Z,99011.13
2023-01-17T22:23:40.673Z,99020.69
2023-01-17T22:26:11.990Z,99021.53
2023-01-17T22:28:42.446Z,99022.38
2023-01-17T22:31:13.178Z,99012.78
2023-01-17T22:33:44.183Z,99024.09
2023-01-17T22:36:16.229Z,99022.34
2023-01-17T22:38:47.044Z,99024.06
2023-01-17T22:41:17.464Z,99024.06
2023-01-17T22:43:48.166Z,99031.81
2023-01-17T22:46:19.627Z,99038.75
2023-01-17T22:48:49.788Z,99043.94
2023-01-17T22:51:22.678Z,99036.97
2023-01-17T22:53:53.647Z,99044.78
2023-01-17T22:56:24.243Z,99045.63
2023-01-17T22:58:54.428Z,99041.28
2023-01-17T23:01:24.945Z,99039.56
2023-01-17T23:03:55.918Z,99042.16
2023-01-17T23:06:27.898Z,99053.47
2023-01-17T23:09:00.009Z,99063.13
2023-01-17T23:11:43.051Z,99074.47
2023-01-17T23:14:15.174Z,99067.56
2023-01-17T23:17:04.557Z,99064.94
2023-01-17T23:19:35.987Z,99070.22
2023-01-17T23:22:23.040Z,99075.44
2023-01-17T23:24:54.248Z,99071.09
2023-01-17T23:27:42.116Z,99075.41
2023-01-17T23:30:13.660Z,99080.63
2023-01-17T23:32:45.490Z,99089.31
2023-01-17T23:35:15.877Z,99099.72
2023-01-17T23:38:04.131Z,99103.22
2023-01-17T23:40:34.763Z,99117.97
2023-01-17T23:43:21.516Z,99121.38
2023-01-17T23:45:52.091Z,99126.59
2023-01-17T23:48:22.191Z,99130.06
2023-01-17T23:50:52.194Z,99134.41
2023-01-17T23:53:23.683Z,99120.50
2023-01-17T23:55:54.527Z,99113.53
2023-01-17T23:58:25.003Z,99104.84
